Time;durP1;ratioP1;P1;durP2;ratioP2;P2;SDS_P1;SDS_P2;PMS_P1;PMS_P2;Temp;Humidity;BMP_temperature;BMP_pressure;BME280_temperature;BME280_humidity;BME280_pressure;Samples;Min_cycle;Max_cycle;Signal;HPM_P1;HPM_P2
2021/03/12 00:01:52;;;;;;;2.60;0.50;;;;;;;30.08;29.82;97625.94;5015238;28;20323;-63
2021/03/12 00:04:18;;;;;;;0.63;0.50;;;;;;;29.77;30.06;97617.03;5015285;28;20209;-64
2021/03/12 00:06:44;;;;;;;0.80;0.32;;;;;;;30.87;29.12;97635.69;5014345;28;20208;-64
2021/03/12 00:09:11;;;;;;;1.90;0.60;;;;;;;30.27;29.25;97635.56;5014342;28;20743;-62
2021/03/12 00:11:37;;;;;;;2.40;0.43;;;;;;;29.94;29.83;97627.97;5014130;28;20291;-65
2021/03/12 00:14:03;;;;;;;4.75;0.40;;;;;;;29.67;30.71;97631.00;5013904;28;20287;-65
2021/03/12 00:16:29;;;;;;;3.53;0.70;;;;;;;30.75;28.56;97638.38;5013924;28;20686;-64
2021/03/12 00:18:55;;;;;;;0.65;0.40;;;;;;;29.92;29.59;97632.78;5013799;28;20235;-64
2021/03/12 00:21:22;;;;;;;2.37;0.30;;;;;;;29.59;30.27;97638.59;5013782;28;20370;-65
2021/03/12 00:23:48;;;;;;;1.90;0.45;;;;;;;30.99;28.28;97636.50;5013869;28;20343;-64
2021/03/12 00:26:15;;;;;;;0.95;0.50;;;;;;;30.04;29.57;97636.34;5013109;28;20225;-65
2021/03/12 00:28:41;;;;;;;2.20;0.47;;;;;;;29.69;30.22;97644.25;5013420;28;20683;-65
2021/03/12 00:31:07;;;;;;;0.77;0.32;;;;;;;31.13;28.10;97653.31;5013471;28;20204;-64
2021/03/12 00:33:34;;;;;;;1.90;0.45;;;;;;;30.24;29.52;97654.09;5013617;28;20292;-64
2021/03/12 00:36:00;;;;;;;1.95;0.63;;;;;;;29.79;29.94;97666.13;5013036;28;20260;-59
2021/03/12 00:38:27;;;;;;;2.35;0.60;;;;;;;29.76;30.26;97666.56;5013009;28;20467;-64
2021/03/12 00:40:55;;;;;;;1.92;0.55;;;;;;;30.51;29.35;97675.28;5013508;28;20283;-60
2021/03/12 00:43:23;;;;;;;2.47;0.55;;;;;;;29.82;29.95;97672.94;5012983;28;20687;-61
2021/03/12 00:45:51;;;;;;;1.27;0.55;;;;;;;29.49;30.57;97679.50;5013114;28;20707;-64
2021/03/12 00:48:18;;;;;;;0.60;0.28;;;;;;;30.74;28.64;97678.03;5013738;28;20505;-63
2021/03/12 00:50:44;;;;;;;2.42;0.40;;;;;;;29.92;29.88;97677.78;5013167;28;20542;-64
2021/03/12 00:53:10;;;;;;;0.95;0.40;;;;;;;29.58;30.55;97691.66;5013181;28;20311;-64
2021/03/12 00:55:37;;;;;;;1.15;0.30;;;;;;;30.93;28.31;97694.94;5012807;28;20264;-64
2021/03/12 00:58:04;;;;;;;1.52;0.40;;;;;;;30.09;29.29;97700.34;5012913;28;20295;-64
2021/03/12 01:00:33;;;;;;;2.97;0.55;;;;;;;29.59;30.33;97703.22;5013199;28;20291;-64
2021/03/12 01:02:59;;;;;;;2.35;0.52;;;;;;;30.49;29.12;97705.19;5013634;28;20256;-63
2021/03/12 01:05:26;;;;;;;1.45;0.35;;;;;;;30.12;29.67;97707.16;5012613;28;20312;-64
2021/03/12 01:07:53;;;;;;;0.80;0.60;;;;;;;29.71;29.67;97706.81;5011983;28;20295;-64
2021/03/12 01:10:20;;;;;;;1.80;0.40;;;;;;;29.46;30.37;97718.50;5012763;28;20306;-65
2021/03/12 01:12:47;;;;;;;3.92;0.60;;;;;;;30.42;29.04;97724.16;5012843;28;20260;-64
2021/03/12 01:15:15;;;;;;;1.00;0.50;;;;;;;29.93;29.58;97723.38;5012674;28;20399;-63
2021/03/12 01:17:43;;;;;;;1.60;0.40;;;;;;;29.40;30.51;97719.38;5012543;28;20695;-64
2021/03/12 01:20:12;;;;;;;2.10;0.60;;;;;;;30.93;28.29;97723.81;5012711;28;20283;-63
2021/03/12 01:22:38;;;;;;;1.65;0.50;;;;;;;29.81;30.08;97722.47;5012250;28;20595;-65
2021/03/12 01:25:06;;;;;;;1.20;0.47;;;;;;;29.38;30.65;97732.25;5012617;28;20363;-64
2021/03/12 01:27:38;;;;;;;2.83;0.40;;;;;;;30.74;29.10;97731.16;5013430;28;20291;-65
2021/03/12 01:30:09;;;;;;;2.17;0.50;;;;;;;29.99;29.72;97735.09;5012192;28;20185;-64
2021/03/12 01:32:35;;;;;;;1.63;0.45;;;;;;;29.64;30.18;97731.13;5012582;28;20193;-64
2021/03/12 01:35:03;;;;;;;2.67;0.35;;;;;;;30.20;29.68;97736.50;5012424;28;20271;-64
2021/03/12 01:37:29;;;;;;;0.38;0.25;;;;;;;30.37;29.12;97739.41;5012030;28;20287;-64
2021/03/12 01:39:55;;;;;;;1.17;0.40;;;;;;;29.86;30.01;97734.25;5012441;28;20296;-64
2021/03/12 01:42:21;;;;;;;0.75;0.50;;;;;;;29.47;30.64;97740.88;5012312;28;20251;-64
2021/03/12 01:44:48;;;;;;;0.40;0.30;;;;;;;30.62;28.68;97737.34;5011955;28;20794;-59
2021/03/12 01:47:14;;;;;;;1.80;0.50;;;;;;;29.83;29.90;97739.25;5012051;28;20243;-60
2021/03/12 01:49:40;;;;;;;1.15;0.30;;;;;;;29.52;30.12;97763.38;5012217;28;20241;-64
2021/03/12 01:52:07;;;;;;;1.70;0.40;;;;;;;30.92;28.46;97766.16;5011878;28;20719;-64
2021/03/12 01:54:35;;;;;;;2.35;0.57;;;;;;;30.07;29.70;97773.34;5011995;28;20712;-64
2021/03/12 01:57:01;;;;;;;1.13;0.38;;;;;;;29.69;30.05;97797.81;5011637;28;20245;-64
2021/03/12 01:59:28;;;;;;;0.93;0.30;;;;;;;30.54;29.34;97794.34;5012137;28;20292;-64
2021/03/12 02:01:54;;;;;;;1.13;0.32;;;;;;;30.33;29.10;97797.53;5011993;28;20282;-59
2021/03/12 02:04:20;;;;;;;1.55;0.47;;;;;;;29.91;29.92;97790.16;5011876;28;20553;-65
2021/03/12 02:06:46;;;;;;;2.42;0.65;;;;;;;29.34;30.99;97785.75;5011618;28;20692;-65
2021/03/12 02:09:14;;;;;;;1.23;0.50;;;;;;;29.05;31.03;97789.88;5011558;28;20204;-63
2021/03/12 02:11:45;;;;;;;1.10;0.40;;;;;;;28.63;31.59;97794.94;5011924;28;20209;-62
2021/03/12 02:14:17;;;;;;;2.95;0.45;;;;;;;30.66;28.69;97794.41;5012039;28;20203;-62
2021/03/12 02:16:48;;;;;;;2.63;0.55;;;;;;;30.98;28.27;97781.47;5011497;28;20271;-64
2021/03/12 02:19:25;;;;;;;1.92;0.52;;;;;;;30.23;29.34;97776.50;5011649;28;20303;-64
2021/03/12 02:21:53;;;;;;;1.80;0.50;;;;;;;30.05;29.77;97780.03;5011409;28;20212;-60
2021/03/12 02:24:27;;;;;;;1.85;0.50;;;;;;;30.73;28.59;97780.81;5011490;28;20301;-64
2021/03/12 02:27:06;;;;;;;0.82;0.50;;;;;;;30.13;29.12;97786.97;5011795;28;20258;-63
2021/03/12 02:29:33;;;;;;;2.80;0.60;;;;;;;29.61;30.02;97781.94;5011394;28;20238;-62
2021/03/12 02:32:03;;;;;;;3.13;0.50;;;;;;;30.84;28.05;97789.97;5011278;28;20537;-64
2021/03/12 02:34:34;;;;;;;0.75;0.50;;;;;;;29.99;29.75;97786.31;5011534;28;20370;-64
2021/03/12 02:37:03;;;;;;;2.35;0.50;;;;;;;29.55;29.92;97785.53;5011581;28;20270;-60
2021/03/12 02:39:31;;;;;;;0.75;0.50;;;;;;;31.06;28.70;97784.88;5011553;28;20216;-64
2021/03/12 02:42:00;;;;;;;1.15;0.38;;;;;;;30.21;29.22;97784.81;5011105;28;20319;-64
2021/03/12 02:44:29;;;;;;;0.77;0.35;;;;;;;29.60;30.03;97777.63;5010951;28;20331;-61
2021/03/12 02:46:58;;;;;;;1.15;0.50;;;;;;;30.92;28.17;97774.28;5011526;28;20292;-62
2021/03/12 02:49:25;;;;;;;0.90;0.40;;;;;;;30.40;28.98;97776.72;5010981;28;20759;-64
2021/03/12 02:51:52;;;;;;;0.90;0.40;;;;;;;29.84;29.57;97774.06;5011226;28;20258;-64
2021/03/12 02:54:19;;;;;;;1.48;0.40;;;;;;;29.99;29.83;97767.44;5011049;28;20219;-64
2021/03/12 02:56:46;;;;;;;1.15;0.35;;;;;;;30.65;28.74;97773.88;5010871;28;20214;-64
2021/03/12 02:59:13;;;;;;;1.92;0.50;;;;;;;29.93;29.49;97776.44;5011102;28;20307;-64
2021/03/12 03:01:40;;;;;;;1.38;0.43;;;;;;;29.54;30.09;97779.31;5011299;28;20295;-65
2021/03/12 03:04:07;;;;;;;1.38;0.40;;;;;;;30.81;28.64;97764.28;5011159;28;20308;-64
2021/03/12 03:06:33;;;;;;;1.85;0.55;;;;;;;30.09;29.22;97770.44;5010770;28;20200;-64
2021/03/12 03:08:59;;;;;;;1.20;0.50;;;;;;;29.60;29.95;97769.53;5011431;28;20272;-63
2021/03/12 03:11:26;;;;;;;1.08;0.22;;;;;;;31.01;28.36;97772.09;5010997;28;20311;-64
2021/03/12 03:13:53;;;;;;;1.00;0.40;;;;;;;30.22;29.37;97774.84;5010950;28;20235;-64
2021/03/12 03:16:24;;;;;;;1.25;0.40;;;;;;;29.78;29.74;97766.03;5010896;28;20274;-64
2021/03/12 03:18:52;;;;;;;1.90;0.50;;;;;;;30.32;29.25;97779.69;5010740;28;20650;-64
2021/03/12 03:21:21;;;;;;;1.48;0.40;;;;;;;30.41;28.71;97781.03;5011407;28;20671;-64
2021/03/12 03:23:47;;;;;;;0.88;0.40;;;;;;;29.75;29.71;97790.72;5010670;28;20236;-64
2021/03/12 03:26:13;;;;;;;1.42;0.40;;;;;;;29.58;30.04;97795.84;5010977;28;20240;-64
2021/03/12 03:28:39;;;;;;;2.33;0.52;;;;;;;30.59;28.23;97794.50;5010681;28;20205;-64
2021/03/12 03:31:06;;;;;;;2.10;0.50;;;;;;;29.79;29.87;97802.72;5014293;28;20291;-64
2021/03/12 03:33:33;;;;;;;1.38;0.40;;;;;;;29.61;30.09;97806.19;5014725;28;20298;-64
2021/03/12 03:36:00;;;;;;;1.45;0.50;;;;;;;30.89;28.40;97807.13;5014380;28;20675;-62
2021/03/12 03:38:27;;;;;;;1.95;0.43;;;;;;;30.04;29.51;97822.34;5014672;28;20211;-64
2021/03/12 03:40:53;;;;;;;2.42;0.57;;;;;;;29.46;30.31;97826.22;5014778;28;20212;-63
2021/03/12 03:43:24;;;;;;;1.17;0.30;;;;;;;30.53;28.90;97838.56;5014978;28;20292;-65
2021/03/12 03:45:51;;;;;;;0.90;0.40;;;;;;;30.23;28.92;97843.91;5013841;28;20667;-64
2021/03/12 03:48:18;;;;;;;1.05;0.50;;;;;;;29.71;30.03;97863.06;5012913;28;20741;-63
2021/03/12 03:50:45;;;;;;;0.75;0.40;;;;;;;29.22;30.51;97849.41;5012865;28;20651;-63
2021/03/12 03:53:13;;;;;;;1.08;0.50;;;;;;;31.57;27.58;97867.16;5013121;28;20395;-64
2021/03/12 03:55:40;;;;;;;1.35;0.50;;;;;;;30.42;28.85;97872.53;5013154;28;20231;-63
2021/03/12 03:58:08;;;;;;;2.22;0.80;;;;;;;29.35;30.26;97867.34;5013088;28;20231;-65
2021/03/12 04:00:35;;;;;;;1.95;0.50;;;;;;;29.02;30.91;97878.31;5012743;28;20208;-61
2021/03/12 04:03:02;;;;;;;2.95;0.80;;;;;;;31.15;28.10;97883.41;5012848;28;20319;-64
2021/03/12 04:05:28;;;;;;;2.85;0.60;;;;;;;30.21;29.28;97887.28;5012581;28;20242;-64
2021/03/12 04:07:55;;;;;;;2.78;0.38;;;;;;;29.86;29.71;97884.31;5012509;28;20200;-64
2021/03/12 04:10:22;;;;;;;3.33;0.50;;;;;;;30.91;28.49;97888.72;5012536;28;20279;-62
2021/03/12 04:12:49;;;;;;;0.73;0.38;;;;;;;30.27;28.90;97891.75;5012685;28;20288;-66
2021/03/12 04:15:17;;;;;;;4.55;0.70;;;;;;;29.67;29.78;97899.59;5013131;28;20232;-64
2021/03/12 04:17:44;;;;;;;1.05;0.57;;;;;;;30.93;28.60;97905.50;5012411;28;20708;-64
2021/03/12 04:20:12;;;;;;;3.65;0.82;;;;;;;30.24;29.19;97918.34;5012651;28;20296;-63
2021/03/12 04:22:40;;;;;;;5.47;0.60;;;;;;;29.95;29.21;97915.31;5012238;28;20741;-64
2021/03/12 04:25:07;;;;;;;1.30;0.50;;;;;;;29.93;29.41;97921.97;5012129;28;20262;-64
2021/03/12 04:27:35;;;;;;;0.65;0.60;;;;;;;30.56;28.51;97920.91;5012368;28;20294;-64
2021/03/12 04:30:02;;;;;;;1.35;0.40;;;;;;;29.83;29.61;97928.72;5012218;28;20283;-62
2021/03/12 04:32:29;;;;;;;2.42;0.60;;;;;;;29.39;30.21;97922.38;5012395;28;20291;-64
2021/03/12 04:34:55;;;;;;;3.20;0.85;;;;;;;29.80;29.75;97929.16;5012086;28;20229;-64
2021/03/12 04:37:22;;;;;;;1.10;0.43;;;;;;;31.13;28.06;97920.63;5012320;28;20311;-64
2021/03/12 04:39:49;;;;;;;3.60;0.63;;;;;;;31.32;27.76;97924.88;5012370;28;20275;-64
2021/03/12 04:42:15;;;;;;;2.33;0.50;;;;;;;30.62;29.16;97920.81;5011872;28;20236;-60
2021/03/12 04:44:43;;;;;;;1.40;0.50;;;;;;;30.34;28.96;97923.22;4991397;28;601278;-64
2021/03/12 04:47:10;;;;;;;1.35;0.40;;;;;;;31.97;27.39;97925.94;5013532;28;20205;-63
2021/03/12 04:49:37;;;;;;;4.00;0.40;;;;;;;31.03;28.14;97925.72;5013354;28;20368;-62
2021/03/12 04:52:04;;;;;;;1.45;0.30;;;;;;;30.44;28.79;97926.25;5012736;28;20300;-61
2021/03/12 04:54:30;;;;;;;4.75;0.50;;;;;;;30.82;28.44;97930.56;5012677;28;20612;-64
2021/03/12 04:56:56;;;;;;;2.85;0.47;;;;;;;32.06;27.72;97924.56;5012936;28;20283;-65
2021/03/12 04:59:23;;;;;;;1.70;0.50;;;;;;;30.84;28.24;97928.44;5012512;28;20297;-64
2021/03/12 05:01:50;;;;;;;2.58;0.50;;;;;;;30.58;29.05;97929.63;5012646;28;20299;-64
2021/03/12 05:04:17;;;;;;;3.13;0.60;;;;;;;31.56;28.20;97935.81;5012740;28;20295;-63
2021/03/12 05:06:45;;;;;;;2.55;0.65;;;;;;;31.43;27.25;97947.59;5013275;28;20559;-64
2021/03/12 05:09:12;;;;;;;1.60;0.60;;;;;;;30.72;28.94;97946.47;5012510;28;20209;-64
2021/03/12 05:11:39;;;;;;;1.40;0.50;;;;;;;30.30;29.39;97944.41;5012464;28;20231;-64
2021/03/12 05:14:07;;;;;;;1.08;0.40;;;;;;;32.19;27.03;97955.13;5013130;28;20323;-65
2021/03/12 05:16:33;;;;;;;1.27;0.50;;;;;;;31.29;27.92;97956.94;5012317;28;20715;-64
2021/03/12 05:19:00;;;;;;;1.13;0.50;;;;;;;30.62;28.94;97953.22;5012350;28;20208;-64
2021/03/12 05:21:26;;;;;;;1.25;0.65;;;;;;;30.63;28.52;97954.88;5012312;28;20215;-64
2021/03/12 05:23:52;;;;;;;1.60;0.60;;;;;;;32.14;27.25;97952.31;5012419;28;20318;-64
2021/03/12 05:26:18;;;;;;;2.83;0.65;;;;;;;31.21;28.13;97950.00;5012517;28;20537;-62
2021/03/12 05:28:44;;;;;;;1.27;0.63;;;;;;;30.60;29.01;97955.31;5012613;28;20510;-64
2021/03/12 05:31:10;;;;;;;2.28;0.70;;;;;;;31.29;28.03;97956.94;5012587;28;20213;-62
2021/03/12 05:33:36;;;;;;;6.63;0.50;;;;;;;32.18;27.50;97959.72;5013009;28;20291;-63
2021/03/12 05:36:04;;;;;;;1.95;0.60;;;;;;;30.48;29.05;97951.72;5012130;28;20231;-64
2021/03/12 05:38:30;;;;;;;0.85;0.40;;;;;;;29.68;30.29;97955.13;5012357;28;20303;-63
2021/03/12 05:40:57;;;;;;;2.85;0.60;;;;;;;30.27;29.48;97958.34;5012600;28;20226;-64
2021/03/12 05:43:24;;;;;;;1.58;0.52;;;;;;;31.65;27.90;97956.00;5012258;28;20652;-64
2021/03/12 05:45:51;;;;;;;4.13;0.63;;;;;;;32.41;27.11;97961.59;5011912;28;20286;-63
2021/03/12 05:48:19;;;;;;;2.60;0.65;;;;;;;31.39;27.63;97959.09;5012389;28;20201;-63
2021/03/12 05:50:45;;;;;;;3.55;0.88;;;;;;;30.75;28.79;97954.94;5012399;28;20228;-64
2021/03/12 05:53:13;;;;;;;4.15;0.60;;;;;;;30.96;28.80;97959.06;5011710;28;20201;-64
2021/03/12 05:55:39;;;;;;;0.95;0.32;;;;;;;32.44;26.50;97958.41;5011787;28;20274;-64
2021/03/12 05:58:05;;;;;;;1.45;0.65;;;;;;;31.60;27.07;97953.19;5011637;28;20355;-65
2021/03/12 06:00:32;;;;;;;1.60;0.38;;;;;;;30.90;28.20;97953.72;5012422;28;20205;-64
2021/03/12 06:02:58;;;;;;;0.77;0.45;;;;;;;30.90;28.45;97959.94;5011847;28;20331;-64
2021/03/12 06:05:24;;;;;;;1.80;0.47;;;;;;;32.49;25.71;97960.38;5011879;28;20319;-64
2021/03/12 06:07:51;;;;;;;0.47;0.30;;;;;;;31.75;27.24;97951.91;5011722;28;20288;-65
2021/03/12 06:10:17;;;;;;;1.35;0.60;;;;;;;30.99;27.97;97947.81;5011674;28;20296;-65
2021/03/12 06:12:44;;;;;;;2.65;0.80;;;;;;;30.72;28.39;97946.47;5011706;28;20307;-65
2021/03/12 06:15:11;;;;;;;2.72;0.45;;;;;;;32.36;26.47;97956.06;5011337;28;20392;-63
2021/03/12 06:17:39;;;;;;;1.33;0.63;;;;;;;31.70;28.05;97953.44;5011674;28;20372;-64
2021/03/12 06:20:08;;;;;;;2.03;0.50;;;;;;;31.11;27.80;97944.31;5011577;28;20689;-64
2021/03/12 06:22:35;;;;;;;1.55;0.40;;;;;;;30.66;28.41;97952.75;5011596;28;20228;-64
2021/03/12 06:25:12;;;;;;;1.15;0.52;;;;;;;31.61;26.85;97945.88;5011297;28;20363;-64
2021/03/12 06:27:39;;;;;;;1.75;0.70;;;;;;;32.53;25.58;97960.75;5011542;28;20208;-64
2021/03/12 06:30:07;;;;;;;1.48;0.50;;;;;;;32.26;25.75;97958.56;5011871;28;20230;-62
2021/03/12 06:32:43;;;;;;;2.42;0.70;;;;;;;31.20;27.83;97953.75;5011303;28;20287;-62
2021/03/12 06:35:10;;;;;;;3.42;0.70;;;;;;;30.88;28.30;97955.84;5011398;28;20225;-64
2021/03/12 06:37:37;;;;;;;15.77;2.75;;;;;;;31.88;27.04;97955.22;5011298;28;20209;-64
2021/03/12 06:40:17;;;;;;;17.70;2.85;;;;;;;32.18;27.35;97965.13;5011688;28;20300;-66
2021/03/12 06:43:08;;;;;;;27.02;4.22;;;;;;;31.64;27.73;97976.00;5011053;28;20267;-65
2021/03/12 06:45:53;;;;;;;29.67;2.95;;;;;;;30.74;29.26;97977.59;5011073;28;20260;-64
2021/03/12 06:48:21;;;;;;;17.65;2.72;;;;;;;30.23;29.79;97982.25;5011300;28;20288;-63
2021/03/12 06:50:48;;;;;;;29.45;2.63;;;;;;;32.02;27.10;97988.25;5011297;28;20299;-62
2021/03/12 06:53:22;;;;;;;14.75;2.15;;;;;;;31.98;27.44;97992.50;5010924;28;20707;-61
2021/03/12 06:55:49;;;;;;;8.77;1.50;;;;;;;31.01;28.66;97987.25;5011530;28;20256;-62
2021/03/12 06:58:16;;;;;;;11.82;1.58;;;;;;;30.98;28.10;97978.56;5011302;28;20306;-63
2021/03/12 07:00:43;;;;;;;20.73;2.55;;;;;;;32.67;26.71;97991.91;5011129;28;20303;-63
2021/03/12 07:03:20;;;;;;;10.80;1.83;;;;;;;31.26;28.14;97992.50;5011260;28;20390;-63
2021/03/12 07:05:58;;;;;;;13.98;1.98;;;;;;;31.03;27.95;97991.38;5016842;28;20294;-64
2021/03/12 07:08:32;;;;;;;16.83;2.33;;;;;;;32.31;26.69;97995.69;5016119;28;20303;-63
2021/03/12 07:10:59;;;;;;;9.95;1.75;;;;;;;32.64;26.48;98001.34;5016323;28;20189;-61
2021/03/12 07:13:26;;;;;;;14.90;2.22;;;;;;;31.64;28.18;98002.19;5015127;28;20308;-62
2021/03/12 07:15:54;;;;;;;17.55;1.95;;;;;;;30.99;28.46;98000.97;5015521;28;20319;-63
2021/03/12 07:18:21;;;;;;;13.25;2.08;;;;;;;32.53;27.39;98004.88;5015246;28;20308;-61
2021/03/12 07:20:48;;;;;;;13.77;1.95;;;;;;;31.68;28.15;98004.19;5015118;28;20647;-63
2021/03/12 07:23:16;;;;;;;7.68;1.85;;;;;;;31.04;28.45;98009.22;5015254;28;20319;-62
2021/03/12 07:25:45;;;;;;;13.27;2.20;;;;;;;31.32;28.18;98013.22;5016192;28;20235;-63
2021/03/12 07:28:13;;;;;;;9.48;1.60;;;;;;;32.64;26.21;98019.47;5015902;28;20599;-63
2021/03/12 07:30:41;;;;;;;8.57;1.60;;;;;;;31.68;28.13;98009.59;5015887;28;20225;-61
2021/03/12 07:33:08;;;;;;;5.35;1.50;;;;;;;31.10;28.19;98012.88;5014858;28;20605;-58
2021/03/12 07:35:36;;;;;;;7.95;1.40;;;;;;;30.66;28.52;98012.97;5014651;28;20316;-62
2021/03/12 07:38:05;;;;;;;14.27;1.95;;;;;;;30.47;28.94;98022.91;5014933;28;20268;-63
2021/03/12 07:40:31;;;;;;;7.38;1.58;;;;;;;31.50;27.90;98033.97;5014751;28;20688;-61
2021/03/12 07:43:00;;;;;;;7.03;1.30;;;;;;;32.53;26.08;98034.63;5015173;28;20324;-63
2021/03/12 07:45:27;;;;;;;12.20;1.77;;;;;;;33.36;24.72;98037.22;5014567;28;20341;-63
2021/03/12 07:47:54;;;;;;;10.02;1.23;;;;;;;32.41;25.95;98028.38;5014337;28;20204;-63
2021/03/12 07:50:31;;;;;;;6.60;1.15;;;;;;;31.58;27.48;98036.38;5014569;28;20285;-63
2021/03/12 07:52:58;;;;;;;5.88;1.02;;;;;;;31.66;27.15;98051.41;5014215;28;20600;-63
2021/03/12 07:55:50;;;;;;;9.10;1.60;;;;;;;33.30;24.76;98057.94;5014241;28;20233;-62
2021/03/12 07:58:49;;;;;;;3.47;1.25;;;;;;;32.36;24.69;98042.66;5013938;28;20196;-63
2021/03/12 08:01:15;;;;;;;5.40;1.00;;;;;;;30.88;27.26;98053.81;5014504;28;20284;-63
2021/03/12 08:03:43;;;;;;;5.45;1.13;;;;;;;30.78;27.95;98053.53;5014755;28;20673;-62
2021/03/12 08:06:31;;;;;;;4.50;1.00;;;;;;;30.13;29.27;98049.34;5014931;28;20596;-63
2021/03/12 08:08:57;;;;;;;3.75;0.82;;;;;;;30.65;28.99;98054.47;5015104;28;20212;-62
2021/03/12 08:11:27;;;;;;;4.85;1.30;;;;;;;31.54;27.70;98056.78;5014518;28;20228;-62
2021/03/12 08:13:54;;;;;;;4.97;1.13;;;;;;;32.06;26.97;98056.25;5013884;28;20656;-62
2021/03/12 08:16:20;;;;;;;5.30;1.20;;;;;;;32.58;26.35;98050.16;5013347;28;20259;-63
2021/03/12 08:18:48;;;;;;;3.35;0.75;;;;;;;32.95;26.12;98055.31;5014299;28;20197;-62
2021/03/12 08:21:36;;;;;;;5.25;1.40;;;;;;;32.37;27.05;98049.69;5014307;28;20576;-58
2021/03/12 08:24:03;;;;;;;4.53;1.10;;;;;;;31.45;27.53;98052.75;5013961;28;20220;-62
2021/03/12 08:26:54;;;;;;;5.38;1.20;;;;;;;31.81;27.96;98053.69;5013790;28;20228;-63
2021/03/12 08:29:38;;;;;;;4.68;0.90;;;;;;;32.25;27.60;98049.69;5014047;28;20640;-62
2021/03/12 08:32:42;;;;;;;5.07;1.20;;;;;;;33.30;24.96;98057.13;5013784;28;20656;-59
2021/03/12 08:35:38;;;;;;;6.17;0.90;;;;;;;28.88;31.58;98052.44;5014187;28;20439;-53
2021/03/12 08:38:21;;;;;;;3.90;1.13;;;;;;;25.65;36.92;98051.38;5014021;28;20227;-57
2021/03/12 08:40:54;;;;;;;4.35;0.70;;;;;;;24.59;39.18;98042.88;5013374;28;20200;-54
2021/03/12 08:43:21;;;;;;;5.63;0.88;;;;;;;24.20;39.25;98054.59;5013681;28;20209;-59
2021/03/12 08:45:48;;;;;;;5.93;0.85;;;;;;;23.95;40.64;98053.97;5013446;28;20236;-54
2021/03/12 08:48:17;;;;;;;14.18;1.30;;;;;;;23.82;39.93;98044.72;5013739;28;20277;-56
2021/03/12 08:50:52;;;;;;;9.40;1.08;;;;;;;23.76;40.60;98042.72;5013456;28;20203;-62
2021/03/12 08:53:19;;;;;;;4.60;1.00;;;;;;;23.73;40.53;98053.78;5013116;28;20454;-55
2021/03/12 08:55:47;;;;;;;4.82;1.10;;;;;;;23.71;40.50;98053.09;5014231;28;20221;-53
2021/03/12 08:58:15;;;;;;;4.18;1.35;;;;;;;23.72;41.28;98035.25;5013395;28;20236;-55
2021/03/12 09:00:42;;;;;;;5.65;1.00;;;;;;;23.74;41.16;98038.59;5013525;28;20259;-56
2021/03/12 09:03:17;;;;;;;8.32;1.10;;;;;;;23.73;41.10;98029.75;5013333;28;20275;-51
2021/03/12 09:05:45;;;;;;;3.25;0.70;;;;;;;23.74;40.43;98031.41;5013426;28;20236;-53
2021/03/12 09:08:13;;;;;;;3.40;1.17;;;;;;;23.77;41.29;98022.22;5013183;28;20255;-57
2021/03/12 09:10:40;;;;;;;2.33;0.98;;;;;;;23.76;41.31;98029.38;5013516;28;20545;-54
2021/03/12 09:13:13;;;;;;;3.80;0.95;;;;;;;23.73;40.71;98023.56;5013182;28;20197;-52
2021/03/12 09:15:39;;;;;;;5.45;1.10;;;;;;;23.78;41.33;98015.84;5012997;28;20311;-60
2021/03/12 09:18:06;;;;;;;7.03;1.25;;;;;;;23.78;41.48;98015.84;5014136;28;20201;-52
2021/03/12 09:20:32;;;;;;;6.43;0.93;;;;;;;23.78;40.44;98032.72;5012652;28;20284;-58
2021/03/12 09:23:00;;;;;;;7.07;1.05;;;;;;;23.78;40.81;98026.53;5012650;28;20228;-56
2021/03/12 09:25:27;;;;;;;5.53;1.15;;;;;;;23.75;41.08;98021.56;5012914;28;20256;-54
2021/03/12 09:28:03;;;;;;;2.33;0.80;;;;;;;23.76;41.31;98033.88;5011763;28;20216;-56
2021/03/12 09:30:31;;;;;;;2.15;0.95;;;;;;;23.74;41.34;98015.38;5013326;28;20185;-56
2021/03/12 09:32:58;;;;;;;7.78;0.80;;;;;;;23.74;40.85;98026.06;5012307;28;20647;-56
2021/03/12 09:35:25;;;;;;;4.10;1.00;;;;;;;23.74;41.14;98014.56;5012791;28;20271;-53
2021/03/12 09:37:54;;;;;;;6.28;1.20;;;;;;;23.74;41.57;98023.38;5012354;28;20338;-50
2021/03/12 09:40:29;;;;;;;3.35;0.95;;;;;;;23.72;41.03;98027.25;5012670;28;20287;-51
2021/03/12 09:42:56;;;;;;;4.28;0.90;;;;;;;23.74;41.64;98027.91;5012564;28;20231;-55
2021/03/12 09:45:23;;;;;;;4.25;0.82;;;;;;;23.76;40.78;98033.88;5011988;28;20228;-54
2021/03/12 09:47:50;;;;;;;5.70;0.80;;;;;;;23.77;41.18;98019.53;5012378;28;20263;-58
2021/03/12 09:50:17;;;;;;;6.72;1.10;;;;;;;23.76;41.48;98013.34;5012190;28;20227;-58
2021/03/12 09:52:44;;;;;;;4.13;0.85;;;;;;;23.75;41.16;98010.88;5012409;28;20204;-58
2021/03/12 09:55:11;;;;;;;3.70;0.85;;;;;;;23.74;41.35;98011.88;5012085;28;20225;-60
2021/03/12 09:57:39;;;;;;;3.83;0.95;;;;;;;23.75;41.13;98011.72;5012288;28;20212;-58
2021/03/12 10:00:07;;;;;;;5.45;0.70;;;;;;;23.74;41.82;98025.25;5011774;28;20205;-57
2021/03/12 10:02:33;;;;;;;10.27;1.13;;;;;;;23.76;41.78;98017.88;5011715;28;20640;-56
2021/03/12 10:05:01;;;;;;;3.95;0.70;;;;;;;23.76;41.56;98023.22;5011704;28;20298;-59
2021/03/12 10:07:36;;;;;;;2.88;0.80;;;;;;;23.75;41.30;98014.38;5011827;28;20695;-59
2021/03/12 10:10:13;;;;;;;3.72;1.13;;;;;;;23.74;41.41;98030.56;5011961;28;20197;-54
2021/03/12 10:12:42;;;;;;;3.28;1.13;;;;;;;23.72;41.71;98032.59;5011766;28;20193;-57
2021/03/12 10:15:10;;;;;;;4.18;0.93;;;;;;;23.70;41.86;98029.25;5011574;28;20251;-58
2021/03/12 10:17:38;;;;;;;4.30;0.77;;;;;;;23.70;41.48;98029.25;5011696;28;20709;-57
2021/03/12 10:20:06;;;;;;;1.50;0.70;;;;;;;23.74;41.79;98034.06;5011654;28;20197;-60
2021/03/12 10:22:35;;;;;;;2.38;0.98;;;;;;;23.72;40.98;98041.41;5011239;28;20213;-56
2021/03/12 10:25:07;;;;;;;10.55;1.60;;;;;;;23.67;38.05;98037.63;5011720;28;20243;-58
2021/03/12 10:27:36;;;;;;;3.50;1.08;;;;;;;23.35;33.24;98036.81;5011255;28;20185;-60
2021/03/12 10:30:09;;;;;;;12.95;1.40;;;;;;;23.06;31.02;98052.47;5011151;28;20279;-59
2021/03/12 10:32:41;;;;;;;2.45;0.70;;;;;;;22.99;31.22;98045.31;5011380;28;20200;-57
2021/03/12 10:35:32;;;;;;;3.58;0.60;;;;;;;22.85;31.34;98037.06;5011504;28;20225;-53
2021/03/12 10:38:01;;;;;;;2.58;0.77;;;;;;;22.77;32.18;98033.59;4996991;28;20209;-58
2021/03/12 10:40:34;;;;;;;1.98;0.70;;;;;;;22.70;30.27;98036.13;5011452;28;20224;-55
2021/03/12 10:43:11;;;;;;;2.50;0.82;;;;;;;22.63;30.34;98027.13;5011534;28;20304;-57
2021/03/12 10:45:44;;;;;;;1.67;0.70;;;;;;;22.59;31.40;98025.81;5011228;28;20320;-57
2021/03/12 10:48:11;;;;;;;2.58;0.95;;;;;;;22.58;32.91;98019.63;5011124;28;20197;-60
2021/03/12 10:50:38;;;;;;;23.67;1.13;;;;;;;22.80;33.53;98022.56;5011816;28;20659;-57
2021/03/12 10:53:10;;;;;;;4.15;0.70;;;;;;;22.94;34.12;98015.69;5011068;28;20212;-59
2021/03/12 10:55:38;;;;;;;2.42;0.73;;;;;;;23.01;34.38;98020.13;5011522;28;20262;-54
2021/03/12 10:58:05;;;;;;;2.17;0.57;;;;;;;23.07;34.27;98016.00;5011193;28;20235;-59
2021/03/12 11:00:32;;;;;;;2.85;0.60;;;;;;;23.13;35.02;98012.59;5011434;28;20212;-59
2021/03/12 11:03:02;;;;;;;2.13;0.68;;;;;;;23.19;35.07;98011.09;5011316;28;20232;-55
2021/03/12 11:05:29;;;;;;;1.52;0.60;;;;;;;23.28;35.40;98010.88;5011097;28;20259;-58
2021/03/12 11:07:55;;;;;;;2.33;0.70;;;;;;;23.37;35.64;97997.50;5011394;28;20295;-56
2021/03/12 11:10:23;;;;;;;1.58;0.68;;;;;;;23.41;35.52;97990.78;5011065;28;20296;-57
2021/03/12 11:12:51;;;;;;;2.03;0.75;;;;;;;23.49;36.70;97990.72;5011218;28;20279;-53
2021/03/12 11:15:18;;;;;;;3.17;0.80;;;;;;;23.52;36.92;97974.38;5011386;28;20320;-54
2021/03/12 11:17:46;;;;;;;7.57;1.20;;;;;;;23.57;36.52;97972.00;5011262;28;20204;-58
2021/03/12 11:20:19;;;;;;;4.22;0.73;;;;;;;23.59;37.08;97972.63;5011237;28;20239;-58
2021/03/12 11:22:46;;;;;;;1.15;0.70;;;;;;;23.64;36.81;97967.59;5011433;28;20240;-54
2021/03/12 11:25:12;;;;;;;1.42;0.73;;;;;;;23.69;37.16;97960.88;5011398;28;20225;-60
2021/03/12 11:27:39;;;;;;;2.97;0.77;;;;;;;23.73;37.13;97959.50;5010800;28;20576;-55
2021/03/12 11:30:09;;;;;;;1.15;0.40;;;;;;;23.76;37.10;97956.47;5011256;28;20259;-49
2021/03/12 11:32:36;;;;;;;2.53;0.70;;;;;;;23.77;37.71;97961.66;5010900;28;20299;-56
2021/03/12 11:35:03;;;;;;;3.65;0.80;;;;;;;23.80;37.32;97957.81;5011407;28;20232;-52
2021/03/12 11:37:30;;;;;;;4.85;0.65;;;;;;;23.79;37.11;97953.47;5011046;28;20209;-55
2021/03/12 11:39:57;;;;;;;4.50;0.90;;;;;;;23.78;37.28;97957.13;5011687;28;20204;-47